sensor_id;sensor_type;location;lat;lon;timestamp;P1;durP1;ratioP1;P2;durP2;ratioP2
57321;SDS011;43159;51.006;18.224;2022-09-03T00:00:25;9.00;;;2.40;;
57321;SDS011;43159;51.006;18.224;2022-09-03T00:02:52;9.30;;;2.30;;
57321;SDS011;43159;51.006;18.224;2022-09-03T00:11:18;10.70;;;2.50;;
57321;SDS011;43159;51.006;18.224;2022-09-03T00:14:06;10.30;;;2.60;;
57321;SDS011;43159;51.006;18.224;2022-09-03T00:16:46;10.30;;;2.70;;
57321;SDS011;43159;51.006;18.224;2022-09-03T00:19:16;13.60;;;3.30;;
57321;SDS011;43159;51.006;18.224;2022-09-03T00:21:44;14.10;;;3.80;;
57321;SDS011;43159;51.006;18.224;2022-09-03T00:24:13;10.20;;;2.80;;
57321;SDS011;43159;51.006;18.224;2022-09-03T00:26:42;9.80;;;2.60;;
57321;SDS011;43159;51.006;18.224;2022-09-03T00:29:16;13.00;;;2.80;;
57321;SDS011;43159;51.006;18.224;2022-09-03T00:31:48;12.50;;;2.60;;
57321;SDS011;43159;51.006;18.224;2022-09-03T00:36:51;9.40;;;2.40;;
57321;SDS011;43159;51.006;18.224;2022-09-03T00:39:18;10.20;;;2.60;;
57321;SDS011;43159;51.006;18.224;2022-09-03T00:49:56;9.80;;;2.30;;
57321;SDS011;43159;51.006;18.224;2022-09-03T00:58:14;11.40;;;2.60;;
57321;SDS011;43159;51.006;18.224;2022-09-03T01:00:52;9.70;;;2.50;;
57321;SDS011;43159;51.006;18.224;2022-09-03T01:08:54;11.50;;;2.80;;
57321;SDS011;43159;51.006;18.224;2022-09-03T01:14:15;9.50;;;2.50;;
57321;SDS011;43159;51.006;18.224;2022-09-03T01:16:44;10.20;;;2.60;;
57321;SDS011;43159;51.006;18.224;2022-09-03T01:30:30;10.60;;;2.60;;
57321;SDS011;43159;51.006;18.224;2022-09-03T01:33:04;9.40;;;2.40;;
57321;SDS011;43159;51.006;18.224;2022-09-03T01:38:46;9.30;;;2.80;;
57321;SDS011;43159;51.006;18.224;2022-09-03T01:41:51;11.40;;;2.90;;
57321;SDS011;43159;51.006;18.224;2022-09-03T01:47:58;10.10;;;2.80;;
57321;SDS011;43159;51.006;18.224;2022-09-03T01:53:12;11.10;;;2.60;;
57321;SDS011;43159;51.006;18.224;2022-09-03T01:59:10;10.80;;;2.70;;
57321;SDS011;43159;51.006;18.224;2022-09-03T02:01:44;9.30;;;2.60;;
57321;SDS011;43159;51.006;18.224;2022-09-03T02:04:18;11.20;;;2.70;;
57321;SDS011;43159;51.006;18.224;2022-09-03T02:06:47;10.00;;;2.60;;
57321;SDS011;43159;51.006;18.224;2022-09-03T02:09:15;9.50;;;2.80;;
57321;SDS011;43159;51.006;18.224;2022-09-03T02:11:41;10.40;;;2.60;;
57321;SDS011;43159;51.006;18.224;2022-09-03T02:14:11;9.40;;;2.60;;
57321;SDS011;43159;51.006;18.224;2022-09-03T02:16:37;9.80;;;2.80;;
57321;SDS011;43159;51.006;18.224;2022-09-03T02:19:04;10.90;;;2.70;;
57321;SDS011;43159;51.006;18.224;2022-09-03T02:21:33;10.90;;;2.70;;
57321;SDS011;43159;51.006;18.224;2022-09-03T02:23:59;11.10;;;2.70;;
57321;SDS011;43159;51.006;18.224;2022-09-03T02:26:27;9.50;;;2.70;;
57321;SDS011;43159;51.006;18.224;2022-09-03T02:28:52;9.90;;;3.00;;
57321;SDS011;43159;51.006;18.224;2022-09-03T02:31:19;10.40;;;3.00;;
57321;SDS011;43159;51.006;18.224;2022-09-03T02:33:45;10.60;;;2.80;;
57321;SDS011;43159;51.006;18.224;2022-09-03T02:36:13;9.80;;;2.80;;
57321;SDS011;43159;51.006;18.224;2022-09-03T02:38:40;10.10;;;2.70;;
57321;SDS011;43159;51.006;18.224;2022-09-03T02:41:08;10.40;;;2.80;;
57321;SDS011;43159;51.006;18.224;2022-09-03T02:46:04;11.40;;;2.60;;
57321;SDS011;43159;51.006;18.224;2022-09-03T02:48:33;9.90;;;2.80;;
57321;SDS011;43159;51.006;18.224;2022-09-03T02:50:59;10.00;;;2.60;;
57321;SDS011;43159;51.006;18.224;2022-09-03T02:53:25;9.40;;;2.60;;
57321;SDS011;43159;51.006;18.224;2022-09-03T02:55:57;10.70;;;2.90;;
57321;SDS011;43159;51.006;18.224;2022-09-03T02:58:25;10.60;;;2.80;;
57321;SDS011;43159;51.006;18.224;2022-09-03T03:00:51;11.10;;;2.60;;
57321;SDS011;43159;51.006;18.224;2022-09-03T03:03:17;10.00;;;2.70;;
57321;SDS011;43159;51.006;18.224;2022-09-03T03:05:47;9.50;;;2.50;;
57321;SDS011;43159;51.006;18.224;2022-09-03T03:08:15;11.10;;;2.80;;
57321;SDS011;43159;51.006;18.224;2022-09-03T03:10:46;9.60;;;2.70;;
57321;SDS011;43159;51.006;18.224;2022-09-03T03:13:12;9.50;;;2.60;;
57321;SDS011;43159;51.006;18.224;2022-09-03T03:15:38;9.90;;;2.50;;
57321;SDS011;43159;51.006;18.224;2022-09-03T03:18:04;9.30;;;2.60;;
57321;SDS011;43159;51.006;18.224;2022-09-03T03:20:31;8.30;;;2.50;;
57321;SDS011;43159;51.006;18.224;2022-09-03T03:23:00;10.00;;;2.60;;
57321;SDS011;43159;51.006;18.224;2022-09-03T03:25:26;11.60;;;2.90;;
57321;SDS011;43159;51.006;18.224;2022-09-03T03:27:53;11.90;;;3.10;;
57321;SDS011;43159;51.006;18.224;2022-09-03T03:30:21;11.90;;;3.20;;
57321;SDS011;43159;51.006;18.224;2022-09-03T03:32:47;10.70;;;3.00;;
57321;SDS011;43159;51.006;18.224;2022-09-03T03:35:13;11.10;;;2.70;;
57321;SDS011;43159;51.006;18.224;2022-09-03T03:37:39;10.40;;;2.60;;
57321;SDS011;43159;51.006;18.224;2022-09-03T03:40:05;9.30;;;2.60;;
57321;SDS011;43159;51.006;18.224;2022-09-03T03:42:34;11.60;;;2.80;;
57321;SDS011;43159;51.006;18.224;2022-09-03T03:45:00;10.20;;;2.60;;
57321;SDS011;43159;51.006;18.224;2022-09-03T03:47:27;11.10;;;3.00;;
57321;SDS011;43159;51.006;18.224;2022-09-03T03:49:56;11.20;;;2.90;;
57321;SDS011;43159;51.006;18.224;2022-09-03T03:52:22;10.10;;;2.80;;
57321;SDS011;43159;51.006;18.224;2022-09-03T03:54:49;11.50;;;2.90;;
57321;SDS011;43159;51.006;18.224;2022-09-03T03:57:15;11.40;;;2.80;;
57321;SDS011;43159;51.006;18.224;2022-09-03T03:59:41;10.60;;;3.10;;
57321;SDS011;43159;51.006;18.224;2022-09-03T04:02:07;10.90;;;3.30;;
57321;SDS011;43159;51.006;18.224;2022-09-03T04:04:33;10.10;;;3.00;;
57321;SDS011;43159;51.006;18.224;2022-09-03T04:06:59;12.10;;;3.30;;
57321;SDS011;43159;51.006;18.224;2022-09-03T04:09:24;10.40;;;2.90;;
57321;SDS011;43159;51.006;18.224;2022-09-03T04:11:49;12.10;;;3.00;;
57321;SDS011;43159;51.006;18.224;2022-09-03T04:14:15;11.00;;;3.20;;
57321;SDS011;43159;51.006;18.224;2022-09-03T04:16:44;11.10;;;3.10;;
57321;SDS011;43159;51.006;18.224;2022-09-03T04:19:11;9.90;;;3.20;;
57321;SDS011;43159;51.006;18.224;2022-09-03T04:21:37;11.20;;;3.30;;
57321;SDS011;43159;51.006;18.224;2022-09-03T04:24:03;11.50;;;3.10;;
57321;SDS011;43159;51.006;18.224;2022-09-03T04:26:30;10.70;;;3.00;;
57321;SDS011;43159;51.006;18.224;2022-09-03T04:28:57;10.50;;;2.90;;
57321;SDS011;43159;51.006;18.224;2022-09-03T04:31:27;11.00;;;3.30;;
57321;SDS011;43159;51.006;18.224;2022-09-03T04:33:52;12.00;;;3.40;;
57321;SDS011;43159;51.006;18.224;2022-09-03T04:36:23;15.40;;;4.00;;
57321;SDS011;43159;51.006;18.224;2022-09-03T04:38:50;10.90;;;3.60;;
57321;SDS011;43159;51.006;18.224;2022-09-03T04:41:21;12.10;;;3.70;;
57321;SDS011;43159;51.006;18.224;2022-09-03T04:43:51;11.70;;;3.90;;
57321;SDS011;43159;51.006;18.224;2022-09-03T04:46:18;13.20;;;4.10;;
57321;SDS011;43159;51.006;18.224;2022-09-03T04:48:49;11.90;;;3.90;;
57321;SDS011;43159;51.006;18.224;2022-09-03T04:51:16;14.60;;;4.60;;
57321;SDS011;43159;51.006;18.224;2022-09-03T04:53:44;17.90;;;5.80;;
57321;SDS011;43159;51.006;18.224;2022-09-03T04:56:14;21.80;;;6.50;;
57321;SDS011;43159;51.006;18.224;2022-09-03T04:58:42;20.70;;;6.90;;
57321;SDS011;43159;51.006;18.224;2022-09-03T05:01:09;23.60;;;7.30;;
57321;SDS011;43159;51.006;18.224;2022-09-03T05:03:37;19.60;;;6.40;;
57321;SDS011;43159;51.006;18.224;2022-09-03T05:06:03;18.50;;;5.50;;
57321;SDS011;43159;51.006;18.224;2022-09-03T05:08:30;17.40;;;5.30;;
57321;SDS011;43159;51.006;18.224;2022-09-03T05:10:57;15.20;;;4.20;;
57321;SDS011;43159;51.006;18.224;2022-09-03T05:13:24;12.20;;;4.20;;
57321;SDS011;43159;51.006;18.224;2022-09-03T05:15:50;12.80;;;4.20;;
57321;SDS011;43159;51.006;18.224;2022-09-03T05:18:16;11.00;;;4.00;;
57321;SDS011;43159;51.006;18.224;2022-09-03T05:20:42;11.90;;;3.70;;
57321;SDS011;43159;51.006;18.224;2022-09-03T05:23:08;11.40;;;3.60;;
57321;SDS011;43159;51.006;18.224;2022-09-03T05:25:33;11.40;;;3.40;;
57321;SDS011;43159;51.006;18.224;2022-09-03T05:27:59;12.60;;;3.50;;
57321;SDS011;43159;51.006;18.224;2022-09-03T05:30:26;11.40;;;3.50;;
57321;SDS011;43159;51.006;18.224;2022-09-03T05:32:52;10.30;;;3.50;;
57321;SDS011;43159;51.006;18.224;2022-09-03T05:35:17;11.10;;;3.30;;
57321;SDS011;43159;51.006;18.224;2022-09-03T05:37:43;11.70;;;3.30;;
57321;SDS011;43159;51.006;18.224;2022-09-03T05:40:10;11.40;;;3.30;;
57321;SDS011;43159;51.006;18.224;2022-09-03T05:42:36;10.10;;;3.20;;
57321;SDS011;43159;51.006;18.224;2022-09-03T05:45:06;10.30;;;3.00;;
57321;SDS011;43159;51.006;18.224;2022-09-03T05:47:35;12.30;;;3.30;;
57321;SDS011;43159;51.006;18.224;2022-09-03T05:50:04;11.60;;;3.20;;
57321;SDS011;43159;51.006;18.224;2022-09-03T05:52:35;11.20;;;3.20;;
57321;SDS011;43159;51.006;18.224;2022-09-03T05:55:02;10.20;;;3.10;;
57321;SDS011;43159;51.006;18.224;2022-09-03T05:57:28;11.00;;;3.30;;
57321;SDS011;43159;51.006;18.224;2022-09-03T05:59:55;10.60;;;3.40;;
57321;SDS011;43159;51.006;18.224;2022-09-03T06:02:21;11.60;;;3.40;;
57321;SDS011;43159;51.006;18.224;2022-09-03T06:04:47;10.60;;;3.50;;
57321;SDS011;43159;51.006;18.224;2022-09-03T06:07:13;11.90;;;3.60;;
57321;SDS011;43159;51.006;18.224;2022-09-03T06:09:39;11.50;;;3.30;;
57321;SDS011;43159;51.006;18.224;2022-09-03T06:12:06;11.10;;;3.20;;
57321;SDS011;43159;51.006;18.224;2022-09-03T06:14:31;11.60;;;3.50;;
57321;SDS011;43159;51.006;18.224;2022-09-03T06:16:57;9.90;;;3.50;;
57321;SDS011;43159;51.006;18.224;2022-09-03T06:19:22;11.40;;;3.60;;
57321;SDS011;43159;51.006;18.224;2022-09-03T06:21:48;10.70;;;3.40;;
57321;SDS011;43159;51.006;18.224;2022-09-03T06:24:18;10.20;;;3.50;;
57321;SDS011;43159;51.006;18.224;2022-09-03T06:26:46;12.20;;;3.70;;
57321;SDS011;43159;51.006;18.224;2022-09-03T06:29:12;12.70;;;3.50;;
57321;SDS011;43159;51.006;18.224;2022-09-03T06:31:38;11.00;;;3.70;;
57321;SDS011;43159;51.006;18.224;2022-09-03T06:34:04;12.50;;;3.90;;
57321;SDS011;43159;51.006;18.224;2022-09-03T06:36:30;11.10;;;3.60;;
57321;SDS011;43159;51.006;18.224;2022-09-03T06:38:56;10.80;;;3.80;;
57321;SDS011;43159;51.006;18.224;2022-09-03T06:41:23;12.50;;;3.90;;
57321;SDS011;43159;51.006;18.224;2022-09-03T06:43:56;12.20;;;3.80;;
57321;SDS011;43159;51.006;18.224;2022-09-03T06:46:27;12.30;;;3.80;;
57321;SDS011;43159;51.006;18.224;2022-09-03T06:48:54;11.20;;;4.00;;
57321;SDS011;43159;51.006;18.224;2022-09-03T06:51:20;11.40;;;3.70;;
57321;SDS011;43159;51.006;18.224;2022-09-03T06:53:48;11.40;;;3.70;;
57321;SDS011;43159;51.006;18.224;2022-09-03T06:56:19;12.10;;;3.70;;
57321;SDS011;43159;51.006;18.224;2022-09-03T06:58:53;10.90;;;3.40;;
57321;SDS011;43159;51.006;18.224;2022-09-03T07:01:21;11.50;;;3.70;;
57321;SDS011;43159;51.006;18.224;2022-09-03T07:03:53;10.60;;;3.60;;
57321;SDS011;43159;51.006;18.224;2022-09-03T07:06:21;13.20;;;3.80;;
57321;SDS011;43159;51.006;18.224;2022-09-03T07:08:48;11.30;;;4.00;;
57321;SDS011;43159;51.006;18.224;2022-09-03T07:11:14;12.50;;;4.50;;
57321;SDS011;43159;51.006;18.224;2022-09-03T07:13:44;12.80;;;3.90;;
57321;SDS011;43159;51.006;18.224;2022-09-03T07:18:41;12.80;;;4.60;;
57321;SDS011;43159;51.006;18.224;2022-09-03T07:21:08;13.50;;;4.30;;
57321;SDS011;43159;51.006;18.224;2022-09-03T07:23:36;13.40;;;4.10;;
57321;SDS011;43159;51.006;18.224;2022-09-03T07:26:03;12.70;;;3.90;;
57321;SDS011;43159;51.006;18.224;2022-09-03T07:28:31;12.20;;;4.10;;
57321;SDS011;43159;51.006;18.224;2022-09-03T07:31:01;14.10;;;4.20;;
57321;SDS011;43159;51.006;18.224;2022-09-03T07:33:29;12.40;;;4.10;;
57321;SDS011;43159;51.006;18.224;2022-09-03T07:35:55;11.80;;;4.10;;
57321;SDS011;43159;51.006;18.224;2022-09-03T07:38:26;12.60;;;3.90;;
57321;SDS011;43159;51.006;18.224;2022-09-03T07:40:58;12.90;;;4.00;;
57321;SDS011;43159;51.006;18.224;2022-09-03T07:43:26;13.60;;;4.10;;
57321;SDS011;43159;51.006;18.224;2022-09-03T07:45:54;12.10;;;4.10;;
57321;SDS011;43159;51.006;18.224;2022-09-03T07:48:21;12.40;;;4.20;;
57321;SDS011;43159;51.006;18.224;2022-09-03T07:50:47;13.90;;;4.10;;
57321;SDS011;43159;51.006;18.224;2022-09-03T07:53:16;10.70;;;3.80;;
57321;SDS011;43159;51.006;18.224;2022-09-03T07:55:42;13.00;;;4.10;;
57321;SDS011;43159;51.006;18.224;2022-09-03T07:58:12;12.10;;;4.30;;
57321;SDS011;43159;51.006;18.224;2022-09-03T08:00:38;13.20;;;4.20;;
57321;SDS011;43159;51.006;18.224;2022-09-03T08:03:06;12.00;;;4.40;;
57321;SDS011;43159;51.006;18.224;2022-09-03T08:05:33;14.20;;;4.60;;
57321;SDS011;43159;51.006;18.224;2022-09-03T08:08:01;12.30;;;4.50;;
57321;SDS011;43159;51.006;18.224;2022-09-03T08:10:32;12.00;;;4.50;;
57321;SDS011;43159;51.006;18.224;2022-09-03T08:12:59;11.80;;;4.00;;
57321;SDS011;43159;51.006;18.224;2022-09-03T08:15:24;12.70;;;4.40;;
57321;SDS011;43159;51.006;18.224;2022-09-03T08:17:50;13.00;;;4.00;;
57321;SDS011;43159;51.006;18.224;2022-09-03T08:20:16;12.40;;;4.10;;
57321;SDS011;43159;51.006;18.224;2022-09-03T08:22:42;12.30;;;4.40;;
57321;SDS011;43159;51.006;18.224;2022-09-03T08:25:08;11.90;;;4.10;;
57321;SDS011;43159;51.006;18.224;2022-09-03T08:27:34;12.50;;;4.20;;
57321;SDS011;43159;51.006;18.224;2022-09-03T08:29:59;11.30;;;4.60;;
57321;SDS011;43159;51.006;18.224;2022-09-03T08:32:25;13.70;;;4.70;;
57321;SDS011;43159;51.006;18.224;2022-09-03T08:34:51;12.70;;;4.20;;
57321;SDS011;43159;51.006;18.224;2022-09-03T08:37:17;12.40;;;4.00;;
57321;SDS011;43159;51.006;18.224;2022-09-03T08:39:43;12.40;;;4.40;;
57321;SDS011;43159;51.006;18.224;2022-09-03T08:44:52;14.10;;;4.00;;
57321;SDS011;43159;51.006;18.224;2022-09-03T08:55:17;13.10;;;4.30;;
57321;SDS011;43159;51.006;18.224;2022-09-03T08:57:56;12.00;;;4.10;;
57321;SDS011;43159;51.006;18.224;2022-09-03T09:00:22;11.80;;;4.00;;
57321;SDS011;43159;51.006;18.224;2022-09-03T09:03:02;11.70;;;4.20;;
57321;SDS011;43159;51.006;18.224;2022-09-03T09:05:50;13.40;;;4.30;;
57321;SDS011;43159;51.006;18.224;2022-09-03T09:11:05;11.30;;;4.00;;
57321;SDS011;43159;51.006;18.224;2022-09-03T09:13:42;11.90;;;4.10;;
57321;SDS011;43159;51.006;18.224;2022-09-03T09:16:20;11.00;;;3.90;;
57321;SDS011;43159;51.006;18.224;2022-09-03T09:18:55;11.70;;;3.70;;
57321;SDS011;43159;51.006;18.224;2022-09-03T09:21:46;10.50;;;4.00;;
57321;SDS011;43159;51.006;18.224;2022-09-03T09:24:26;11.50;;;4.00;;
57321;SDS011;43159;51.006;18.224;2022-09-03T09:26:58;11.30;;;3.80;;
57321;SDS011;43159;51.006;18.224;2022-09-03T09:29:29;10.80;;;3.70;;
57321;SDS011;43159;51.006;18.224;2022-09-03T09:31:57;11.20;;;3.30;;
57321;SDS011;43159;51.006;18.224;2022-09-03T09:34:22;15.30;;;3.90;;
57321;SDS011;43159;51.006;18.224;2022-09-03T09:36:52;11.30;;;3.40;;
57321;SDS011;43159;51.006;18.224;2022-09-03T09:39:19;12.10;;;3.80;;
57321;SDS011;43159;51.006;18.224;2022-09-03T09:41:59;10.50;;;3.40;;
57321;SDS011;43159;51.006;18.224;2022-09-03T09:44:30;14.10;;;3.80;;
57321;SDS011;43159;51.006;18.224;2022-09-03T09:47:06;10.90;;;3.70;;
57321;SDS011;43159;51.006;18.224;2022-09-03T09:52:11;12.70;;;3.90;;
57321;SDS011;43159;51.006;18.224;2022-09-03T09:54:40;11.90;;;3.70;;
57321;SDS011;43159;51.006;18.224;2022-09-03T09:57:12;11.00;;;3.50;;
57321;SDS011;43159;51.006;18.224;2022-09-03T09:59:42;14.20;;;3.60;;
57321;SDS011;43159;51.006;18.224;2022-09-03T10:04:59;11.60;;;3.40;;
57321;SDS011;43159;51.006;18.224;2022-09-03T10:12:40;13.00;;;3.50;;
57321;SDS011;43159;51.006;18.224;2022-09-03T10:20:23;11.40;;;3.40;;
57321;SDS011;43159;51.006;18.224;2022-09-03T10:22:56;12.80;;;3.80;;
57321;SDS011;43159;51.006;18.224;2022-09-03T10:25:33;11.90;;;3.80;;
57321;SDS011;43159;51.006;18.224;2022-09-03T10:28:07;10.80;;;3.60;;
57321;SDS011;43159;51.006;18.224;2022-09-03T10:30:38;11.20;;;3.70;;
57321;SDS011;43159;51.006;18.224;2022-09-03T10:33:32;11.80;;;3.60;;
57321;SDS011;43159;51.006;18.224;2022-09-03T10:58:11;14.20;;;3.60;;
57321;SDS011;43159;51.006;18.224;2022-09-03T11:07:04;12.60;;;3.60;;
57321;SDS011;43159;51.006;18.224;2022-09-03T11:12:07;13.70;;;4.20;;
57321;SDS011;43159;51.006;18.224;2022-09-03T11:17:13;11.80;;;3.60;;
57321;SDS011;43159;51.006;18.224;2022-09-03T11:19:45;15.30;;;3.40;;
57321;SDS011;43159;51.006;18.224;2022-09-03T11:22:15;11.00;;;3.20;;
57321;SDS011;43159;51.006;18.224;2022-09-03T11:24:42;13.10;;;3.50;;
57321;SDS011;43159;51.006;18.224;2022-09-03T11:29:52;10.40;;;3.20;;
57321;SDS011;43159;51.006;18.224;2022-09-03T11:32:23;12.00;;;3.30;;
57321;SDS011;43159;51.006;18.224;2022-09-03T11:34:52;12.10;;;3.30;;
57321;SDS011;43159;51.006;18.224;2022-09-03T11:37:22;11.60;;;3.70;;
57321;SDS011;43159;51.006;18.224;2022-09-03T11:44:48;12.30;;;3.80;;
57321;SDS011;43159;51.006;18.224;2022-09-03T11:47:37;11.30;;;3.70;;
57321;SDS011;43159;51.006;18.224;2022-09-03T11:50:25;10.60;;;3.70;;
57321;SDS011;43159;51.006;18.224;2022-09-03T11:53:21;12.80;;;3.50;;
57321;SDS011;43159;51.006;18.224;2022-09-03T11:55:58;10.60;;;3.20;;
57321;SDS011;43159;51.006;18.224;2022-09-03T11:58:25;11.40;;;3.20;;
57321;SDS011;43159;51.006;18.224;2022-09-03T12:00:54;10.90;;;3.30;;
57321;SDS011;43159;51.006;18.224;2022-09-03T12:03:40;10.60;;;3.20;;
57321;SDS011;43159;51.006;18.224;2022-09-03T12:06:18;10.00;;;3.10;;
57321;SDS011;43159;51.006;18.224;2022-09-03T12:11:40;10.30;;;3.40;;
57321;SDS011;43159;51.006;18.224;2022-09-03T12:17:18;10.00;;;3.30;;
57321;SDS011;43159;51.006;18.224;2022-09-03T12:19:59;12.50;;;3.70;;
57321;SDS011;43159;51.006;18.224;2022-09-03T12:22:26;10.60;;;3.70;;
57321;SDS011;43159;51.006;18.224;2022-09-03T12:24:53;10.90;;;3.60;;
57321;SDS011;43159;51.006;18.224;2022-09-03T12:27:23;11.40;;;3.70;;
57321;SDS011;43159;51.006;18.224;2022-09-03T12:29:56;11.20;;;3.90;;
57321;SDS011;43159;51.006;18.224;2022-09-03T12:32:30;10.70;;;4.00;;
57321;SDS011;43159;51.006;18.224;2022-09-03T12:35:12;11.80;;;3.60;;
57321;SDS011;43159;51.006;18.224;2022-09-03T12:37:40;12.80;;;3.60;;
57321;SDS011;43159;51.006;18.224;2022-09-03T12:40:15;11.80;;;4.00;;
57321;SDS011;43159;51.006;18.224;2022-09-03T12:42:43;11.00;;;3.60;;
57321;SDS011;43159;51.006;18.224;2022-09-03T12:45:09;12.20;;;4.00;;
57321;SDS011;43159;51.006;18.224;2022-09-03T12:47:37;10.90;;;3.60;;
57321;SDS011;43159;51.006;18.224;2022-09-03T12:50:08;10.80;;;3.50;;
57321;SDS011;43159;51.006;18.224;2022-09-03T12:52:37;12.20;;;3.80;;
57321;SDS011;43159;51.006;18.224;2022-09-03T12:55:07;10.90;;;3.60;;
57321;SDS011;43159;51.006;18.224;2022-09-03T12:58:02;12.30;;;3.80;;
57321;SDS011;43159;51.006;18.224;2022-09-03T13:00:44;12.80;;;3.50;;
57321;SDS011;43159;51.006;18.224;2022-09-03T13:03:18;13.20;;;4.10;;
57321;SDS011;43159;51.006;18.224;2022-09-03T13:05:47;12.60;;;3.60;;
57321;SDS011;43159;51.006;18.224;2022-09-03T13:08:19;11.60;;;3.80;;
57321;SDS011;43159;51.006;18.224;2022-09-03T13:10:55;11.50;;;3.80;;
57321;SDS011;43159;51.006;18.224;2022-09-03T13:13:24;11.60;;;3.60;;
57321;SDS011;43159;51.006;18.224;2022-09-03T13:21:40;12.00;;;4.00;;
57321;SDS011;43159;51.006;18.224;2022-09-03T13:27:26;13.00;;;4.00;;
57321;SDS011;43159;51.006;18.224;2022-09-03T13:30:09;11.10;;;4.20;;
57321;SDS011;43159;51.006;18.224;2022-09-03T13:32:46;11.70;;;4.20;;
57321;SDS011;43159;51.006;18.224;2022-09-03T13:43:42;11.80;;;3.90;;
57321;SDS011;43159;51.006;18.224;2022-09-03T13:46:15;12.20;;;3.80;;
57321;SDS011;43159;51.006;18.224;2022-09-03T13:48:42;10.80;;;3.70;;
57321;SDS011;43159;51.006;18.224;2022-09-03T13:51:36;12.80;;;3.90;;
57321;SDS011;43159;51.006;18.224;2022-09-03T13:57:21;12.60;;;4.00;;
57321;SDS011;43159;51.006;18.224;2022-09-03T14:00:01;13.40;;;4.20;;
57321;SDS011;43159;51.006;18.224;2022-09-03T14:02:51;12.10;;;4.00;;
57321;SDS011;43159;51.006;18.224;2022-09-03T14:10:32;11.20;;;3.90;;
57321;SDS011;43159;51.006;18.224;2022-09-03T14:13:05;13.30;;;4.30;;
57321;SDS011;43159;51.006;18.224;2022-09-03T14:15:57;12.90;;;4.00;;
57321;SDS011;43159;51.006;18.224;2022-09-03T14:18:40;10.40;;;3.60;;
57321;SDS011;43159;51.006;18.224;2022-09-03T14:21:23;11.70;;;3.90;;
57321;SDS011;43159;51.006;18.224;2022-09-03T14:23:58;12.10;;;3.80;;
57321;SDS011;43159;51.006;18.224;2022-09-03T14:26:32;12.20;;;4.00;;
57321;SDS011;43159;51.006;18.224;2022-09-03T14:31:31;13.90;;;3.80;;
57321;SDS011;43159;51.006;18.224;2022-09-03T14:34:42;11.40;;;4.00;;
57321;SDS011;43159;51.006;18.224;2022-09-03T14:43:09;11.40;;;4.00;;
57321;SDS011;43159;51.006;18.224;2022-09-03T14:54:35;15.10;;;4.20;;
57321;SDS011;43159;51.006;18.224;2022-09-03T14:57:26;13.60;;;3.90;;
57321;SDS011;43159;51.006;18.224;2022-09-03T15:02:45;15.30;;;4.20;;
57321;SDS011;43159;51.006;18.224;2022-09-03T15:11:19;12.30;;;4.50;;
57321;SDS011;43159;51.006;18.224;2022-09-03T15:13:59;12.40;;;4.80;;
57321;SDS011;43159;51.006;18.224;2022-09-03T15:24:11;13.60;;;4.30;;
57321;SDS011;43159;51.006;18.224;2022-09-03T15:30:18;12.20;;;4.40;;
57321;SDS011;43159;51.006;18.224;2022-09-03T15:35:32;14.10;;;4.80;;
57321;SDS011;43159;51.006;18.224;2022-09-03T15:38:03;22.20;;;14.80;;
57321;SDS011;43159;51.006;18.224;2022-09-03T15:40:51;14.90;;;4.90;;
57321;SDS011;43159;51.006;18.224;2022-09-03T15:43:24;12.20;;;4.00;;
57321;SDS011;43159;51.006;18.224;2022-09-03T15:45:55;12.50;;;4.10;;
57321;SDS011;43159;51.006;18.224;2022-09-03T15:48:36;11.40;;;4.30;;
57321;SDS011;43159;51.006;18.224;2022-09-03T15:51:32;13.00;;;5.20;;
57321;SDS011;43159;51.006;18.224;2022-09-03T15:57:04;14.50;;;5.50;;
57321;SDS011;43159;51.006;18.224;2022-09-03T15:59:42;14.20;;;4.50;;
57321;SDS011;43159;51.006;18.224;2022-09-03T16:02:15;14.00;;;4.70;;
57321;SDS011;43159;51.006;18.224;2022-09-03T16:04:49;13.60;;;5.30;;
57321;SDS011;43159;51.006;18.224;2022-09-03T16:15:09;13.50;;;4.90;;
57321;SDS011;43159;51.006;18.224;2022-09-03T16:20:51;12.70;;;4.40;;
57321;SDS011;43159;51.006;18.224;2022-09-03T16:29:10;12.90;;;4.70;;
57321;SDS011;43159;51.006;18.224;2022-09-03T16:32:01;12.60;;;4.50;;
57321;SDS011;43159;51.006;18.224;2022-09-03T16:35:02;12.90;;;4.90;;
57321;SDS011;43159;51.006;18.224;2022-09-03T16:43:11;14.80;;;5.40;;
57321;SDS011;43159;51.006;18.224;2022-09-03T16:48:52;14.30;;;5.20;;
57321;SDS011;43159;51.006;18.224;2022-09-03T17:11:02;16.10;;;6.70;;
57321;SDS011;43159;51.006;18.224;2022-09-03T17:19:37;12.80;;;5.00;;
57321;SDS011;43159;51.006;18.224;2022-09-03T17:25:04;12.80;;;5.10;;
57321;SDS011;43159;51.006;18.224;2022-09-03T17:47:28;12.50;;;5.30;;
57321;SDS011;43159;51.006;18.224;2022-09-03T17:49:57;13.50;;;5.70;;
57321;SDS011;43159;51.006;18.224;2022-09-03T17:55:01;18.30;;;5.50;;
57321;SDS011;43159;51.006;18.224;2022-09-03T17:57:39;14.50;;;5.70;;
57321;SDS011;43159;51.006;18.224;2022-09-03T18:00:10;13.40;;;5.40;;
57321;SDS011;43159;51.006;18.224;2022-09-03T18:05:41;12.40;;;5.10;;
57321;SDS011;43159;51.006;18.224;2022-09-03T18:13:45;13.80;;;5.70;;
57321;SDS011;43159;51.006;18.224;2022-09-03T18:16:36;13.80;;;5.80;;
57321;SDS011;43159;51.006;18.224;2022-09-03T18:22:25;12.60;;;5.90;;
57321;SDS011;43159;51.006;18.224;2022-09-03T18:25:14;14.60;;;5.90;;
57321;SDS011;43159;51.006;18.224;2022-09-03T18:28:05;17.70;;;6.50;;
57321;SDS011;43159;51.006;18.224;2022-09-03T18:30:50;15.80;;;6.90;;
57321;SDS011;43159;51.006;18.224;2022-09-03T18:33:35;15.70;;;6.60;;
57321;SDS011;43159;51.006;18.224;2022-09-03T18:36:20;16.70;;;7.30;;
57321;SDS011;43159;51.006;18.224;2022-09-03T18:42:08;17.90;;;8.10;;
57321;SDS011;43159;51.006;18.224;2022-09-03T18:48:33;17.30;;;7.70;;
57321;SDS011;43159;51.006;18.224;2022-09-03T18:54:49;18.30;;;9.40;;
57321;SDS011;43159;51.006;18.224;2022-09-03T18:58:02;20.50;;;10.30;;
57321;SDS011;43159;51.006;18.224;2022-09-03T19:04:19;19.90;;;10.30;;
57321;SDS011;43159;51.006;18.224;2022-09-03T19:07:15;20.30;;;9.70;;
57321;SDS011;43159;51.006;18.224;2022-09-03T19:10:16;18.60;;;9.40;;
57321;SDS011;43159;51.006;18.224;2022-09-03T19:16:12;21.00;;;9.20;;
57321;SDS011;43159;51.006;18.224;2022-09-03T19:19:26;17.90;;;9.10;;
57321;SDS011;43159;51.006;18.224;2022-09-03T19:22:20;18.20;;;8.90;;
57321;SDS011;43159;51.006;18.224;2022-09-03T19:25:11;17.20;;;9.00;;
57321;SDS011;43159;51.006;18.224;2022-09-03T19:30:47;18.90;;;9.20;;
57321;SDS011;43159;51.006;18.224;2022-09-03T19:36:53;15.80;;;7.40;;
57321;SDS011;43159;51.006;18.224;2022-09-03T19:52:32;20.30;;;8.80;;
57321;SDS011;43159;51.006;18.224;2022-09-03T19:55:21;18.90;;;8.90;;
57321;SDS011;43159;51.006;18.224;2022-09-03T19:58:09;19.70;;;9.00;;
57321;SDS011;43159;51.006;18.224;2022-09-03T20:00:55;20.00;;;8.80;;
57321;SDS011;43159;51.006;18.224;2022-09-03T20:03:40;17.80;;;9.10;;
57321;SDS011;43159;51.006;18.224;2022-09-03T20:06:26;17.20;;;9.20;;
57321;SDS011;43159;51.006;18.224;2022-09-03T20:09:11;18.40;;;9.70;;
57321;SDS011;43159;51.006;18.224;2022-09-03T20:11:57;20.00;;;10.50;;
57321;SDS011;43159;51.006;18.224;2022-09-03T20:14:27;19.20;;;10.20;;
57321;SDS011;43159;51.006;18.224;2022-09-03T20:28:32;18.70;;;9.50;;
57321;SDS011;43159;51.006;18.224;2022-09-03T20:31:09;19.10;;;9.80;;
57321;SDS011;43159;51.006;18.224;2022-09-03T20:41:36;18.00;;;9.70;;